sensor_id;sensor_type;location;lat;lon;timestamp;P1;durP1;ratioP1;P2;durP2;ratioP2
73776;SDS011;62088;50.240;2.696;2023-01-28T00:02:00;27.80;;;19.60;;
73776;SDS011;62088;50.240;2.696;2023-01-28T00:04:27;28.88;;;20.88;;
73776;SDS011;62088;50.240;2.696;2023-01-28T00:06:54;29.00;;;21.42;;
73776;SDS011;62088;50.240;2.696;2023-01-28T00:09:21;22.63;;;17.50;;
73776;SDS011;62088;50.240;2.696;2023-01-28T00:11:48;22.95;;;17.70;;
73776;SDS011;62088;50.240;2.696;2023-01-28T00:14:16;27.30;;;17.77;;
73776;SDS011;62088;50.240;2.696;2023-01-28T00:16:43;26.38;;;19.00;;
73776;SDS011;62088;50.240;2.696;2023-01-28T00:19:11;24.65;;;18.58;;
73776;SDS011;62088;50.240;2.696;2023-01-28T00:21:38;26.67;;;18.30;;
73776;SDS011;62088;50.240;2.696;2023-01-28T00:24:06;21.85;;;17.30;;
73776;SDS011;62088;50.240;2.696;2023-01-28T00:26:35;23.35;;;17.42;;
73776;SDS011;62088;50.240;2.696;2023-01-28T00:29:02;27.85;;;17.55;;
73776;SDS011;62088;50.240;2.696;2023-01-28T00:31:29;24.13;;;17.48;;
73776;SDS011;62088;50.240;2.696;2023-01-28T00:33:56;26.77;;;18.92;;
73776;SDS011;62088;50.240;2.696;2023-01-28T00:36:23;23.92;;;17.65;;
73776;SDS011;62088;50.240;2.696;2023-01-28T00:38:55;22.15;;;16.20;;
73776;SDS011;62088;50.240;2.696;2023-01-28T00:41:26;21.25;;;15.00;;
73776;SDS011;62088;50.240;2.696;2023-01-28T00:43:56;20.40;;;15.13;;
73776;SDS011;62088;50.240;2.696;2023-01-28T00:46:24;23.08;;;16.63;;
73776;SDS011;62088;50.240;2.696;2023-01-28T00:48:52;26.02;;;17.38;;
73776;SDS011;62088;50.240;2.696;2023-01-28T00:51:20;24.10;;;16.88;;
73776;SDS011;62088;50.240;2.696;2023-01-28T00:53:47;22.80;;;16.52;;
73776;SDS011;62088;50.240;2.696;2023-01-28T00:56:15;26.83;;;16.40;;
73776;SDS011;62088;50.240;2.696;2023-01-28T00:58:43;21.80;;;15.48;;
73776;SDS011;62088;50.240;2.696;2023-01-28T01:03:49;24.05;;;15.27;;
73776;SDS011;62088;50.240;2.696;2023-01-28T01:06:36;21.85;;;16.55;;
73776;SDS011;62088;50.240;2.696;2023-01-28T01:09:05;22.33;;;16.27;;
73776;SDS011;62088;50.240;2.696;2023-01-28T01:11:36;21.42;;;15.65;;
73776;SDS011;62088;50.240;2.696;2023-01-28T01:14:03;21.35;;;15.25;;
73776;SDS011;62088;50.240;2.696;2023-01-28T01:16:32;21.75;;;15.52;;
73776;SDS011;62088;50.240;2.696;2023-01-28T01:19:01;22.73;;;16.35;;
73776;SDS011;62088;50.240;2.696;2023-01-28T01:21:29;24.05;;;17.25;;
73776;SDS011;62088;50.240;2.696;2023-01-28T01:23:56;23.60;;;16.77;;
73776;SDS011;62088;50.240;2.696;2023-01-28T01:26:24;23.02;;;16.10;;
73776;SDS011;62088;50.240;2.696;2023-01-28T01:28:55;24.83;;;16.42;;
73776;SDS011;62088;50.240;2.696;2023-01-28T01:31:22;22.67;;;16.90;;
73776;SDS011;62088;50.240;2.696;2023-01-28T01:33:52;23.17;;;16.10;;
73776;SDS011;62088;50.240;2.696;2023-01-28T01:36:19;24.65;;;17.42;;
73776;SDS011;62088;50.240;2.696;2023-01-28T01:38:51;23.40;;;16.98;;
73776;SDS011;62088;50.240;2.696;2023-01-28T01:41:24;24.85;;;16.85;;
73776;SDS011;62088;50.240;2.696;2023-01-28T01:43:55;25.08;;;16.27;;
73776;SDS011;62088;50.240;2.696;2023-01-28T01:46:47;23.45;;;16.15;;
73776;SDS011;62088;50.240;2.696;2023-01-28T01:49:17;23.90;;;16.83;;
73776;SDS011;62088;50.240;2.696;2023-01-28T01:51:51;22.42;;;15.98;;
73776;SDS011;62088;50.240;2.696;2023-01-28T01:54:23;29.65;;;17.15;;
73776;SDS011;62088;50.240;2.696;2023-01-28T01:56:55;25.85;;;17.50;;
73776;SDS011;62088;50.240;2.696;2023-01-28T01:59:26;25.15;;;17.13;;
73776;SDS011;62088;50.240;2.696;2023-01-28T02:01:57;28.55;;;17.75;;
73776;SDS011;62088;50.240;2.696;2023-01-28T02:04:29;24.48;;;17.33;;
73776;SDS011;62088;50.240;2.696;2023-01-28T02:06:59;25.27;;;17.55;;
73776;SDS011;62088;50.240;2.696;2023-01-28T02:09:31;21.67;;;16.10;;
73776;SDS011;62088;50.240;2.696;2023-01-28T02:12:06;24.75;;;16.42;;
73776;SDS011;62088;50.240;2.696;2023-01-28T02:14:39;22.35;;;16.00;;
73776;SDS011;62088;50.240;2.696;2023-01-28T02:17:10;25.13;;;17.35;;
73776;SDS011;62088;50.240;2.696;2023-01-28T02:19:42;25.60;;;16.60;;
73776;SDS011;62088;50.240;2.696;2023-01-28T02:24:48;23.85;;;15.68;;
73776;SDS011;62088;50.240;2.696;2023-01-28T02:30:31;28.25;;;16.27;;
73776;SDS011;62088;50.240;2.696;2023-01-28T02:33:07;22.30;;;15.90;;
73776;SDS011;62088;50.240;2.696;2023-01-28T02:36:09;22.67;;;16.33;;
73776;SDS011;62088;50.240;2.696;2023-01-28T02:38:47;23.95;;;15.93;;
73776;SDS011;62088;50.240;2.696;2023-01-28T02:41:23;26.25;;;16.70;;
73776;SDS011;62088;50.240;2.696;2023-01-28T02:44:00;23.58;;;17.00;;
73776;SDS011;62088;50.240;2.696;2023-01-28T02:49:17;25.40;;;17.58;;
73776;SDS011;62088;50.240;2.696;2023-01-28T02:54:32;27.33;;;18.23;;
73776;SDS011;62088;50.240;2.696;2023-01-28T03:05:55;24.38;;;17.02;;
73776;SDS011;62088;50.240;2.696;2023-01-28T03:08:33;24.17;;;16.23;;
73776;SDS011;62088;50.240;2.696;2023-01-28T03:11:33;26.38;;;17.42;;
73776;SDS011;62088;50.240;2.696;2023-01-28T03:14:23;23.55;;;16.52;;
73776;SDS011;62088;50.240;2.696;2023-01-28T03:17:13;24.50;;;17.38;;
73776;SDS011;62088;50.240;2.696;2023-01-28T03:20:02;26.40;;;17.10;;
73776;SDS011;62088;50.240;2.696;2023-01-28T03:22:50;27.05;;;17.90;;
73776;SDS011;62088;50.240;2.696;2023-01-28T03:25:39;24.83;;;16.63;;
73776;SDS011;62088;50.240;2.696;2023-01-28T03:28:27;26.98;;;17.58;;
73776;SDS011;62088;50.240;2.696;2023-01-28T03:31:16;28.00;;;19.23;;
73776;SDS011;62088;50.240;2.696;2023-01-28T03:34:03;25.30;;;17.92;;
73776;SDS011;62088;50.240;2.696;2023-01-28T03:36:49;27.33;;;18.98;;
73776;SDS011;62088;50.240;2.696;2023-01-28T03:39:43;29.20;;;19.83;;
73776;SDS011;62088;50.240;2.696;2023-01-28T03:42:12;32.38;;;19.38;;
73776;SDS011;62088;50.240;2.696;2023-01-28T03:44:50;29.23;;;19.08;;
73776;SDS011;62088;50.240;2.696;2023-01-28T03:47:20;28.17;;;18.67;;
73776;SDS011;62088;50.240;2.696;2023-01-28T03:49:52;28.25;;;18.75;;
73776;SDS011;62088;50.240;2.696;2023-01-28T03:52:28;27.63;;;18.58;;
73776;SDS011;62088;50.240;2.696;2023-01-28T03:55:13;28.83;;;19.70;;
73776;SDS011;62088;50.240;2.696;2023-01-28T03:57:41;27.45;;;18.98;;
73776;SDS011;62088;50.240;2.696;2023-01-28T04:00:11;31.63;;;18.58;;
73776;SDS011;62088;50.240;2.696;2023-01-28T04:02:41;30.17;;;19.23;;
73776;SDS011;62088;50.240;2.696;2023-01-28T04:05:12;25.20;;;17.70;;
73776;SDS011;62088;50.240;2.696;2023-01-28T04:07:45;25.50;;;18.08;;
73776;SDS011;62088;50.240;2.696;2023-01-28T04:10:18;24.60;;;17.75;;
73776;SDS011;62088;50.240;2.696;2023-01-28T04:12:53;26.95;;;18.00;;
73776;SDS011;62088;50.240;2.696;2023-01-28T04:15:21;23.63;;;16.80;;
73776;SDS011;62088;50.240;2.696;2023-01-28T04:17:49;27.38;;;17.35;;
73776;SDS011;62088;50.240;2.696;2023-01-28T04:20:25;24.13;;;16.42;;
73776;SDS011;62088;50.240;2.696;2023-01-28T04:22:53;27.13;;;17.30;;
73776;SDS011;62088;50.240;2.696;2023-01-28T04:25:21;22.58;;;16.38;;
73776;SDS011;62088;50.240;2.696;2023-01-28T04:27:48;23.83;;;16.20;;
73776;SDS011;62088;50.240;2.696;2023-01-28T04:30:19;24.35;;;17.05;;
73776;SDS011;62088;50.240;2.696;2023-01-28T04:33:00;25.10;;;16.77;;
73776;SDS011;62088;50.240;2.696;2023-01-28T04:35:38;24.15;;;17.17;;
73776;SDS011;62088;50.240;2.696;2023-01-28T04:38:09;22.88;;;15.98;;
73776;SDS011;62088;50.240;2.696;2023-01-28T04:40:49;23.08;;;16.10;;
73776;SDS011;62088;50.240;2.696;2023-01-28T04:43:26;23.77;;;16.73;;
73776;SDS011;62088;50.240;2.696;2023-01-28T04:46:27;23.45;;;15.90;;
73776;SDS011;62088;50.240;2.696;2023-01-28T04:51:57;21.33;;;14.43;;
73776;SDS011;62088;50.240;2.696;2023-01-28T04:54:38;23.30;;;15.77;;
73776;SDS011;62088;50.240;2.696;2023-01-28T04:57:05;23.35;;;15.27;;
73776;SDS011;62088;50.240;2.696;2023-01-28T04:59:34;24.05;;;15.88;;
73776;SDS011;62088;50.240;2.696;2023-01-28T05:02:01;23.40;;;15.15;;
73776;SDS011;62088;50.240;2.696;2023-01-28T05:04:28;25.20;;;17.27;;
73776;SDS011;62088;50.240;2.696;2023-01-28T05:06:55;23.05;;;16.27;;
73776;SDS011;62088;50.240;2.696;2023-01-28T05:09:28;23.20;;;15.13;;
73776;SDS011;62088;50.240;2.696;2023-01-28T05:11:55;23.17;;;15.60;;
73776;SDS011;62088;50.240;2.696;2023-01-28T05:14:22;21.92;;;15.63;;
73776;SDS011;62088;50.240;2.696;2023-01-28T05:16:57;24.67;;;16.00;;
73776;SDS011;62088;50.240;2.696;2023-01-28T05:19:24;22.23;;;14.70;;
73776;SDS011;62088;50.240;2.696;2023-01-28T05:21:51;22.85;;;15.20;;
73776;SDS011;62088;50.240;2.696;2023-01-28T05:24:27;22.17;;;15.73;;
73776;SDS011;62088;50.240;2.696;2023-01-28T05:26:54;22.85;;;15.07;;
73776;SDS011;62088;50.240;2.696;2023-01-28T05:29:21;22.70;;;16.08;;
73776;SDS011;62088;50.240;2.696;2023-01-28T05:31:48;23.08;;;16.30;;
73776;SDS011;62088;50.240;2.696;2023-01-28T05:34:16;24.85;;;16.45;;
73776;SDS011;62088;50.240;2.696;2023-01-28T05:36:43;23.33;;;15.75;;
73776;SDS011;62088;50.240;2.696;2023-01-28T05:39:30;21.67;;;14.90;;
73776;SDS011;62088;50.240;2.696;2023-01-28T05:41:58;21.80;;;15.40;;
73776;SDS011;62088;50.240;2.696;2023-01-28T05:44:25;24.15;;;16.23;;
73776;SDS011;62088;50.240;2.696;2023-01-28T05:47:18;27.00;;;16.10;;
73776;SDS011;62088;50.240;2.696;2023-01-28T05:49:51;22.65;;;15.30;;
73776;SDS011;62088;50.240;2.696;2023-01-28T05:52:38;23.30;;;16.13;;
73776;SDS011;62088;50.240;2.696;2023-01-28T05:55:13;22.60;;;15.18;;
73776;SDS011;62088;50.240;2.696;2023-01-28T05:57:40;23.75;;;15.50;;
73776;SDS011;62088;50.240;2.696;2023-01-28T06:00:08;22.05;;;14.95;;
73776;SDS011;62088;50.240;2.696;2023-01-28T06:02:43;21.98;;;14.98;;
73776;SDS011;62088;50.240;2.696;2023-01-28T06:05:13;23.45;;;15.98;;
73776;SDS011;62088;50.240;2.696;2023-01-28T06:07:43;24.92;;;15.77;;
73776;SDS011;62088;50.240;2.696;2023-01-28T06:10:11;23.50;;;14.55;;
73776;SDS011;62088;50.240;2.696;2023-01-28T06:12:39;22.40;;;15.15;;
73776;SDS011;62088;50.240;2.696;2023-01-28T06:15:29;18.80;;;13.07;;
73776;SDS011;62088;50.240;2.696;2023-01-28T06:18:21;23.88;;;15.70;;
73776;SDS011;62088;50.240;2.696;2023-01-28T06:20:49;21.13;;;14.65;;
73776;SDS011;62088;50.240;2.696;2023-01-28T06:23:17;23.23;;;15.48;;
73776;SDS011;62088;50.240;2.696;2023-01-28T06:25:45;22.60;;;15.68;;
73776;SDS011;62088;50.240;2.696;2023-01-28T06:28:13;22.77;;;15.05;;
73776;SDS011;62088;50.240;2.696;2023-01-28T06:30:46;22.58;;;15.93;;
73776;SDS011;62088;50.240;2.696;2023-01-28T06:33:14;24.75;;;16.38;;
73776;SDS011;62088;50.240;2.696;2023-01-28T06:35:41;23.17;;;15.80;;
73776;SDS011;62088;50.240;2.696;2023-01-28T06:38:09;25.45;;;16.80;;
73776;SDS011;62088;50.240;2.696;2023-01-28T06:40:37;24.13;;;16.88;;
73776;SDS011;62088;50.240;2.696;2023-01-28T06:43:04;22.83;;;16.02;;
73776;SDS011;62088;50.240;2.696;2023-01-28T06:45:32;24.27;;;16.00;;
73776;SDS011;62088;50.240;2.696;2023-01-28T06:47:59;25.02;;;16.70;;
73776;SDS011;62088;50.240;2.696;2023-01-28T06:50:26;24.60;;;16.33;;
73776;SDS011;62088;50.240;2.696;2023-01-28T06:52:53;23.38;;;15.88;;
73776;SDS011;62088;50.240;2.696;2023-01-28T06:55:20;24.38;;;16.15;;
73776;SDS011;62088;50.240;2.696;2023-01-28T06:57:47;23.10;;;16.10;;
73776;SDS011;62088;50.240;2.696;2023-01-28T07:00:14;25.00;;;16.80;;
73776;SDS011;62088;50.240;2.696;2023-01-28T07:02:42;24.30;;;16.65;;
73776;SDS011;62088;50.240;2.696;2023-01-28T07:05:10;24.55;;;16.20;;
73776;SDS011;62088;50.240;2.696;2023-01-28T07:07:37;23.75;;;16.65;;
73776;SDS011;62088;50.240;2.696;2023-01-28T07:10:07;26.60;;;17.25;;
73776;SDS011;62088;50.240;2.696;2023-01-28T07:12:35;24.85;;;17.40;;
73776;SDS011;62088;50.240;2.696;2023-01-28T07:15:02;24.70;;;17.08;;
73776;SDS011;62088;50.240;2.696;2023-01-28T07:17:29;26.17;;;18.23;;
73776;SDS011;62088;50.240;2.696;2023-01-28T07:19:56;27.15;;;18.33;;
73776;SDS011;62088;50.240;2.696;2023-01-28T07:22:23;25.58;;;17.30;;
73776;SDS011;62088;50.240;2.696;2023-01-28T07:24:50;25.50;;;17.30;;
73776;SDS011;62088;50.240;2.696;2023-01-28T07:27:18;26.55;;;17.35;;
73776;SDS011;62088;50.240;2.696;2023-01-28T07:29:45;27.60;;;18.67;;
73776;SDS011;62088;50.240;2.696;2023-01-28T07:32:12;27.58;;;20.15;;
73776;SDS011;62088;50.240;2.696;2023-01-28T07:34:39;32.13;;;18.80;;
73776;SDS011;62088;50.240;2.696;2023-01-28T07:37:08;25.33;;;18.70;;
73776;SDS011;62088;50.240;2.696;2023-01-28T07:39:35;28.45;;;18.88;;
73776;SDS011;62088;50.240;2.696;2023-01-28T07:42:02;28.33;;;19.52;;
73776;SDS011;62088;50.240;2.696;2023-01-28T07:44:34;25.45;;;17.20;;
73776;SDS011;62088;50.240;2.696;2023-01-28T07:47:02;25.95;;;17.50;;
73776;SDS011;62088;50.240;2.696;2023-01-28T07:49:30;26.08;;;18.55;;
73776;SDS011;62088;50.240;2.696;2023-01-28T07:51:59;25.55;;;18.80;;
73776;SDS011;62088;50.240;2.696;2023-01-28T07:54:26;25.90;;;18.00;;
73776;SDS011;62088;50.240;2.696;2023-01-28T07:56:53;26.90;;;18.45;;
73776;SDS011;62088;50.240;2.696;2023-01-28T07:59:20;28.40;;;19.85;;
73776;SDS011;62088;50.240;2.696;2023-01-28T08:01:48;31.25;;;19.73;;
73776;SDS011;62088;50.240;2.696;2023-01-28T08:04:15;26.92;;;19.05;;
73776;SDS011;62088;50.240;2.696;2023-01-28T08:06:42;28.23;;;20.80;;
73776;SDS011;62088;50.240;2.696;2023-01-28T08:09:09;26.65;;;19.58;;
73776;SDS011;62088;50.240;2.696;2023-01-28T08:11:36;31.85;;;21.42;;
73776;SDS011;62088;50.240;2.696;2023-01-28T08:14:04;27.30;;;20.25;;
73776;SDS011;62088;50.240;2.696;2023-01-28T08:16:32;34.33;;;23.20;;
73776;SDS011;62088;50.240;2.696;2023-01-28T08:18:59;62.78;;;33.42;;
73776;SDS011;62088;50.240;2.696;2023-01-28T08:21:26;36.55;;;24.42;;
73776;SDS011;62088;50.240;2.696;2023-01-28T08:23:53;31.23;;;22.90;;
73776;SDS011;62088;50.240;2.696;2023-01-28T08:26:21;28.60;;;21.48;;
73776;SDS011;62088;50.240;2.696;2023-01-28T08:28:49;31.10;;;22.75;;
73776;SDS011;62088;50.240;2.696;2023-01-28T08:31:17;31.75;;;22.38;;
73776;SDS011;62088;50.240;2.696;2023-01-28T08:33:44;29.77;;;19.27;;
73776;SDS011;62088;50.240;2.696;2023-01-28T08:36:11;26.58;;;19.60;;
73776;SDS011;62088;50.240;2.696;2023-01-28T08:38:38;25.50;;;17.50;;
73776;SDS011;62088;50.240;2.696;2023-01-28T08:41:05;26.77;;;17.20;;
73776;SDS011;62088;50.240;2.696;2023-01-28T08:43:32;22.23;;;16.25;;
73776;SDS011;62088;50.240;2.696;2023-01-28T08:45:59;24.67;;;17.13;;
73776;SDS011;62088;50.240;2.696;2023-01-28T08:48:26;24.38;;;17.20;;
73776;SDS011;62088;50.240;2.696;2023-01-28T08:50:53;23.50;;;18.08;;
73776;SDS011;62088;50.240;2.696;2023-01-28T08:53:25;27.25;;;18.00;;
73776;SDS011;62088;50.240;2.696;2023-01-28T08:55:52;26.77;;;18.58;;
73776;SDS011;62088;50.240;2.696;2023-01-28T08:58:19;26.40;;;19.02;;
73776;SDS011;62088;50.240;2.696;2023-01-28T09:00:47;23.17;;;16.45;;
73776;SDS011;62088;50.240;2.696;2023-01-28T09:03:14;24.45;;;17.27;;
73776;SDS011;62088;50.240;2.696;2023-01-28T09:05:42;25.58;;;17.80;;
73776;SDS011;62088;50.240;2.696;2023-01-28T09:08:11;24.30;;;17.08;;
73776;SDS011;62088;50.240;2.696;2023-01-28T09:10:39;24.73;;;17.48;;
73776;SDS011;62088;50.240;2.696;2023-01-28T09:13:09;23.13;;;16.08;;
73776;SDS011;62088;50.240;2.696;2023-01-28T09:15:38;23.95;;;17.77;;
73776;SDS011;62088;50.240;2.696;2023-01-28T09:18:05;26.02;;;17.00;;
73776;SDS011;62088;50.240;2.696;2023-01-28T09:20:32;23.83;;;16.85;;
73776;SDS011;62088;50.240;2.696;2023-01-28T09:23:00;21.55;;;16.58;;
73776;SDS011;62088;50.240;2.696;2023-01-28T09:25:27;22.55;;;16.70;;
73776;SDS011;62088;50.240;2.696;2023-01-28T09:27:54;23.00;;;15.55;;
73776;SDS011;62088;50.240;2.696;2023-01-28T09:30:24;20.63;;;14.77;;
73776;SDS011;62088;50.240;2.696;2023-01-28T09:32:52;20.92;;;15.13;;
73776;SDS011;62088;50.240;2.696;2023-01-28T09:35:20;19.95;;;14.65;;
73776;SDS011;62088;50.240;2.696;2023-01-28T09:37:47;24.63;;;18.23;;
73776;SDS011;62088;50.240;2.696;2023-01-28T09:40:19;20.58;;;15.68;;
73776;SDS011;62088;50.240;2.696;2023-01-28T09:45:45;22.88;;;17.63;;
73776;SDS011;62088;50.240;2.696;2023-01-28T09:48:23;19.33;;;14.88;;
73776;SDS011;62088;50.240;2.696;2023-01-28T09:50:59;21.83;;;15.18;;
73776;SDS011;62088;50.240;2.696;2023-01-28T09:53:31;19.85;;;14.85;;
73776;SDS011;62088;50.240;2.696;2023-01-28T09:56:08;26.00;;;17.85;;
73776;SDS011;62088;50.240;2.696;2023-01-28T09:58:40;27.48;;;19.25;;
73776;SDS011;62088;50.240;2.696;2023-01-28T10:09:53;22.38;;;16.52;;
73776;SDS011;62088;50.240;2.696;2023-01-28T10:18:30;20.98;;;16.35;;
73776;SDS011;62088;50.240;2.696;2023-01-28T10:21:30;23.13;;;17.45;;
73776;SDS011;62088;50.240;2.696;2023-01-28T10:24:53;18.58;;;14.73;;
73776;SDS011;62088;50.240;2.696;2023-01-28T10:27:11;19.63;;;13.82;;
73776;SDS011;62088;50.240;2.696;2023-01-28T10:29:43;19.35;;;13.98;;
73776;SDS011;62088;50.240;2.696;2023-01-28T10:34:42;18.65;;;13.45;;
73776;SDS011;62088;50.240;2.696;2023-01-28T10:37:11;20.75;;;14.77;;
73776;SDS011;62088;50.240;2.696;2023-01-28T10:39:40;23.50;;;17.35;;
73776;SDS011;62088;50.240;2.696;2023-01-28T10:42:29;22.77;;;17.15;;
73776;SDS011;62088;50.240;2.696;2023-01-28T10:45:41;22.98;;;17.27;;
73776;SDS011;62088;50.240;2.696;2023-01-28T10:50:55;23.02;;;17.10;;
73776;SDS011;62088;50.240;2.696;2023-01-28T10:53:37;23.52;;;16.90;;
73776;SDS011;62088;50.240;2.696;2023-01-28T10:56:09;20.92;;;16.27;;
73776;SDS011;62088;50.240;2.696;2023-01-28T10:59:00;22.63;;;16.42;;
73776;SDS011;62088;50.240;2.696;2023-01-28T11:01:49;21.85;;;15.98;;
73776;SDS011;62088;50.240;2.696;2023-01-28T11:04:23;22.67;;;16.30;;
73776;SDS011;62088;50.240;2.696;2023-01-28T11:09:35;29.57;;;19.83;;
73776;SDS011;62088;50.240;2.696;2023-01-28T11:12:10;28.52;;;19.08;;
73776;SDS011;62088;50.240;2.696;2023-01-28T11:14:51;33.13;;;22.23;;
73776;SDS011;62088;50.240;2.696;2023-01-28T11:17:29;27.83;;;17.55;;
73776;SDS011;62088;50.240;2.696;2023-01-28T11:23:02;29.88;;;20.63;;
73776;SDS011;62088;50.240;2.696;2023-01-28T11:25:33;28.17;;;20.10;;
73776;SDS011;62088;50.240;2.696;2023-01-28T11:28:07;26.63;;;19.00;;
73776;SDS011;62088;50.240;2.696;2023-01-28T11:30:49;20.80;;;15.88;;
73776;SDS011;62088;50.240;2.696;2023-01-28T11:33:19;19.77;;;15.05;;
73776;SDS011;62088;50.240;2.696;2023-01-28T11:35:57;23.50;;;15.82;;
73776;SDS011;62088;50.240;2.696;2023-01-28T11:38:32;22.23;;;14.57;;
73776;SDS011;62088;50.240;2.696;2023-01-28T11:40:59;30.48;;;20.92;;
73776;SDS011;62088;50.240;2.696;2023-01-28T11:43:27;25.23;;;17.50;;
73776;SDS011;62088;50.240;2.696;2023-01-28T11:48:56;27.27;;;19.02;;
73776;SDS011;62088;50.240;2.696;2023-01-28T11:51:47;23.38;;;16.67;;
73776;SDS011;62088;50.240;2.696;2023-01-28T12:05:50;20.40;;;12.63;;
73776;SDS011;62088;50.240;2.696;2023-01-28T12:08:23;32.88;;;18.63;;
73776;SDS011;62088;50.240;2.696;2023-01-28T12:27:29;13.68;;;9.52;;
73776;SDS011;62088;50.240;2.696;2023-01-28T12:32:47;12.73;;;10.05;;
73776;SDS011;62088;50.240;2.696;2023-01-28T12:38:17;18.15;;;12.15;;
73776;SDS011;62088;50.240;2.696;2023-01-28T12:46:40;11.00;;;7.50;;
73776;SDS011;62088;50.240;2.696;2023-01-28T12:57:25;20.45;;;14.73;;
73776;SDS011;62088;50.240;2.696;2023-01-28T13:00:01;18.52;;;11.52;;
73776;SDS011;62088;50.240;2.696;2023-01-28T13:02:44;11.55;;;7.22;;
73776;SDS011;62088;50.240;2.696;2023-01-28T13:05:21;10.90;;;8.05;;
73776;SDS011;62088;50.240;2.696;2023-01-28T13:08:09;11.43;;;8.35;;
73776;SDS011;62088;50.240;2.696;2023-01-28T13:13:26;12.75;;;8.85;;
73776;SDS011;62088;50.240;2.696;2023-01-28T13:15:59;12.32;;;8.90;;
73776;SDS011;62088;50.240;2.696;2023-01-28T13:31:41;10.70;;;7.45;;
73776;SDS011;62088;50.240;2.696;2023-01-28T13:37:02;11.90;;;7.78;;
73776;SDS011;62088;50.240;2.696;2023-01-28T13:39:31;11.32;;;6.97;;
73776;SDS011;62088;50.240;2.696;2023-01-28T13:42:08;10.40;;;7.28;;
73776;SDS011;62088;50.240;2.696;2023-01-28T13:44:47;12.75;;;7.70;;
73776;SDS011;62088;50.240;2.696;2023-01-28T13:47:35;12.90;;;7.25;;
73776;SDS011;62088;50.240;2.696;2023-01-28T13:50:10;11.48;;;7.28;;
73776;SDS011;62088;50.240;2.696;2023-01-28T13:52:57;10.23;;;7.22;;
73776;SDS011;62088;50.240;2.696;2023-01-28T13:55:34;10.73;;;7.80;;
73776;SDS011;62088;50.240;2.696;2023-01-28T14:18:17;14.70;;;10.63;;
73776;SDS011;62088;50.240;2.696;2023-01-28T14:20:50;14.98;;;11.23;;
73776;SDS011;62088;50.240;2.696;2023-01-28T14:23:20;15.95;;;10.63;;
73776;SDS011;62088;50.240;2.696;2023-01-28T14:26:04;15.60;;;9.52;;
73776;SDS011;62088;50.240;2.696;2023-01-28T14:31:27;12.55;;;9.23;;
73776;SDS011;62088;50.240;2.696;2023-01-28T14:36:44;14.02;;;9.73;;
73776;SDS011;62088;50.240;2.696;2023-01-28T14:39:15;14.95;;;9.85;;
73776;SDS011;62088;50.240;2.696;2023-01-28T14:41:43;13.90;;;9.45;;
73776;SDS011;62088;50.240;2.696;2023-01-28T14:44:35;18.80;;;9.52;;
73776;SDS011;62088;50.240;2.696;2023-01-28T15:00:58;15.05;;;8.93;;
73776;SDS011;62088;50.240;2.696;2023-01-28T15:03:26;13.68;;;9.23;;
73776;SDS011;62088;50.240;2.696;2023-01-28T15:09:04;13.63;;;8.90;;
73776;SDS011;62088;50.240;2.696;2023-01-28T15:11:38;11.48;;;8.57;;
73776;SDS011;62088;50.240;2.696;2023-01-28T15:14:21;12.10;;;8.70;;
73776;SDS011;62088;50.240;2.696;2023-01-28T15:16:53;11.98;;;7.78;;
73776;SDS011;62088;50.240;2.696;2023-01-28T15:19:34;20.50;;;13.10;;
73776;SDS011;62088;50.240;2.696;2023-01-28T15:22:06;15.38;;;9.98;;
73776;SDS011;62088;50.240;2.696;2023-01-28T15:24:33;13.98;;;10.20;;
73776;SDS011;62088;50.240;2.696;2023-01-28T15:27:01;15.68;;;10.20;;
73776;SDS011;62088;50.240;2.696;2023-01-28T15:29:30;15.90;;;10.82;;
73776;SDS011;62088;50.240;2.696;2023-01-28T15:32:02;21.48;;;13.45;;
73776;SDS011;62088;50.240;2.696;2023-01-28T15:34:30;15.75;;;11.65;;
73776;SDS011;62088;50.240;2.696;2023-01-28T15:36:58;18.88;;;10.77;;
73776;SDS011;62088;50.240;2.696;2023-01-28T15:39:27;20.25;;;14.27;;
73776;SDS011;62088;50.240;2.696;2023-01-28T15:44:29;16.67;;;10.95;;
73776;SDS011;62088;50.240;2.696;2023-01-28T15:47:00;37.00;;;23.20;;
73776;SDS011;62088;50.240;2.696;2023-01-28T15:49:30;21.88;;;15.55;;
73776;SDS011;62088;50.240;2.696;2023-01-28T15:52:03;25.02;;;17.58;;
73776;SDS011;62088;50.240;2.696;2023-01-28T15:54:30;14.38;;;10.80;;
73776;SDS011;62088;50.240;2.696;2023-01-28T15:57:07;23.42;;;15.63;;
73776;SDS011;62088;50.240;2.696;2023-01-28T16:02:50;25.25;;;15.82;;
73776;SDS011;62088;50.240;2.696;2023-01-28T16:05:35;27.33;;;14.07;;
73776;SDS011;62088;50.240;2.696;2023-01-28T16:08:09;17.35;;;11.68;;
73776;SDS011;62088;50.240;2.696;2023-01-28T16:10:44;14.23;;;9.18;;
73776;SDS011;62088;50.240;2.696;2023-01-28T16:13:19;18.27;;;10.68;;
73776;SDS011;62088;50.240;2.696;2023-01-28T16:15:50;16.40;;;11.68;;
73776;SDS011;62088;50.240;2.696;2023-01-28T16:18:24;22.02;;;14.05;;
73776;SDS011;62088;50.240;2.696;2023-01-28T16:21:34;22.10;;;13.75;;
73776;SDS011;62088;50.240;2.696;2023-01-28T16:24:25;25.67;;;15.45;;
73776;SDS011;62088;50.240;2.696;2023-01-28T16:27:01;26.55;;;15.43;;
73776;SDS011;62088;50.240;2.696;2023-01-28T16:29:30;20.83;;;11.20;;
73776;SDS011;62088;50.240;2.696;2023-01-28T16:31:58;16.23;;;9.93;;
73776;SDS011;62088;50.240;2.696;2023-01-28T16:34:26;13.13;;;9.02;;
73776;SDS011;62088;50.240;2.696;2023-01-28T16:36:55;13.02;;;8.68;;
73776;SDS011;62088;50.240;2.696;2023-01-28T16:39:24;14.00;;;8.60;;
73776;SDS011;62088;50.240;2.696;2023-01-28T16:41:51;14.07;;;8.18;;
73776;SDS011;62088;50.240;2.696;2023-01-28T16:44:19;17.52;;;8.65;;
73776;SDS011;62088;50.240;2.696;2023-01-28T16:46:46;11.13;;;7.78;;
73776;SDS011;62088;50.240;2.696;2023-01-28T16:49:13;11.15;;;8.13;;
73776;SDS011;62088;50.240;2.696;2023-01-28T16:51:40;13.35;;;7.70;;
73776;SDS011;62088;50.240;2.696;2023-01-28T16:54:14;10.63;;;7.25;;
73776;SDS011;62088;50.240;2.696;2023-01-28T16:56:42;12.23;;;7.47;;
73776;SDS011;62088;50.240;2.696;2023-01-28T16:59:12;12.65;;;7.82;;
73776;SDS011;62088;50.240;2.696;2023-01-28T17:01:44;11.02;;;7.57;;
73776;SDS011;62088;50.240;2.696;2023-01-28T17:04:11;10.43;;;7.72;;
73776;SDS011;62088;50.240;2.696;2023-01-28T17:06:42;11.93;;;7.32;;
73776;SDS011;62088;50.240;2.696;2023-01-28T17:09:11;11.88;;;6.75;;
73776;SDS011;62088;50.240;2.696;2023-01-28T17:11:39;11.40;;;7.05;;
73776;SDS011;62088;50.240;2.696;2023-01-28T17:14:06;11.65;;;7.25;;
73776;SDS011;62088;50.240;2.696;2023-01-28T17:16:34;9.55;;;6.55;;
73776;SDS011;62088;50.240;2.696;2023-01-28T17:19:01;10.25;;;7.13;;
73776;SDS011;62088;50.240;2.696;2023-01-28T17:21:28;10.55;;;7.00;;
73776;SDS011;62088;50.240;2.696;2023-01-28T17:23:55;10.50;;;6.85;;
73776;SDS011;62088;50.240;2.696;2023-01-28T17:26:24;10.50;;;6.97;;
73776;SDS011;62088;50.240;2.696;2023-01-28T17:28:52;12.05;;;6.97;;
73776;SDS011;62088;50.240;2.696;2023-01-28T17:31:20;12.75;;;8.20;;
73776;SDS011;62088;50.240;2.696;2023-01-28T17:33:51;15.07;;;8.18;;
73776;SDS011;62088;50.240;2.696;2023-01-28T17:36:22;10.70;;;8.05;;
73776;SDS011;62088;50.240;2.696;2023-01-28T17:38:50;11.82;;;8.52;;
73776;SDS011;62088;50.240;2.696;2023-01-28T17:41:17;14.07;;;9.25;;
73776;SDS011;62088;50.240;2.696;2023-01-28T17:43:54;12.82;;;8.65;;
73776;SDS011;62088;50.240;2.696;2023-01-28T17:46:22;14.35;;;8.45;;